Time;durP1;ratioP1;P1;durP2;ratioP2;P2;SDS_P1;SDS_P2;PMS_P1;PMS_P2;Temp;Humidity;BMP_temperature;BMP_pressure;BME280_temperature;BME280_humidity;BME280_pressure;Samples;Min_cycle;Max_cycle;Signal;HPM_P1;HPM_P2
2021/10/09 00:05:38;;;;;;;8.93;8.02;;;19.50;61.20;;;;;;20756947;28;20033;-59
2021/10/09 00:15:39;;;;;;;10.18;7.50;;;19.50;61.30;;;;;;20835766;28;20056;-59
2021/10/09 00:25:39;;;;;;;10.50;8.43;;;19.50;61.10;;;;;;20834713;28;20029;-59
2021/10/09 00:35:40;;;;;;;9.05;8.15;;;19.50;61.10;;;;;;20809940;23;20050;-60
2021/10/09 00:45:52;;;;;;;9.18;8.00;;;19.50;61.20;;;;;;20694412;28;20034;-52
2021/10/09 00:55:55;;;;;;;13.05;7.75;;;19.50;61.20;;;;;;20738462;28;20108;-52
2021/10/09 01:05:56;;;;;;;9.95;7.50;;;19.40;61.20;;;;;;20737615;28;20040;-57
2021/10/09 01:15:56;;;;;;;10.90;8.03;;;19.40;61.00;;;;;;20743875;28;20084;-56
2021/10/09 01:25:57;;;;;;;8.93;8.02;;;19.40;61.00;;;;;;20717843;28;20473;-54
2021/10/09 01:35:57;;;;;;;10.77;7.55;;;19.40;60.90;;;;;;20707278;28;20042;-56
2021/10/09 01:45:58;;;;;;;8.05;6.50;;;19.40;60.90;;;;;;20711808;28;20029;-53
2021/10/09 01:55:59;;;;;;;7.82;7.00;;;19.40;60.80;;;;;;20704717;28;20378;-56
2021/10/09 02:06:00;;;;;;;8.18;7.05;;;19.30;60.80;;;;;;20718212;28;20034;-53
2021/10/09 02:26:07;;;;;;;11.48;7.13;;;19.30;60.60;;;;;;20711493;28;20566;-53
2021/10/09 02:36:07;;;;;;;8.68;7.70;;;19.30;60.70;;;;;;20708955;28;20105;-58
2021/10/09 02:46:08;;;;;;;8.77;7.00;;;19.30;60.50;;;;;;20705470;28;20034;-55
2021/10/09 02:56:09;;;;;;;7.13;6.40;;;19.30;60.40;;;;;;20738370;28;20026;-52
2021/10/09 03:06:09;;;;;;;12.03;7.23;;;19.30;60.30;;;;;;20709417;28;20105;-56
2021/10/09 03:16:10;;;;;;;7.00;6.30;;;19.20;60.30;;;;;;20673834;28;20521;-58
2021/10/09 03:26:10;;;;;;;12.00;7.85;;;19.30;60.10;;;;;;20739556;28;20084;-57
2021/10/09 03:36:11;;;;;;;7.30;5.90;;;19.30;60.20;;;;;;20713968;28;20034;-58
2021/10/09 03:46:23;;;;;;;8.60;6.50;;;19.20;60.10;;;;;;20656585;28;20544;-59
2021/10/09 03:56:24;;;;;;;8.68;7.65;;;19.20;60.00;;;;;;20656765;28;20121;-59
2021/10/09 04:06:24;;;;;;;11.35;6.97;;;19.20;60.00;;;;;;20658236;28;20061;-59
2021/10/09 04:16:25;;;;;;;7.40;6.60;;;19.10;59.90;;;;;;20655222;28;20054;-58
2021/10/09 04:26:25;;;;;;;8.77;7.68;;;19.20;59.90;;;;;;20654858;28;20062;-59
2021/10/09 04:36:26;;;;;;;8.02;7.22;;;19.10;59.80;;;;;;20654527;28;20030;-59
2021/10/09 04:46:27;;;;;;;9.15;6.70;;;19.10;59.70;;;;;;20654233;28;20034;-59
2021/10/09 04:56:27;;;;;;;8.13;6.60;;;19.10;59.70;;;;;;20662839;28;20026;-59
2021/10/09 05:06:28;;;;;;;20.15;8.27;;;19.10;59.70;;;;;;20668115;28;20475;-58
2021/10/09 05:16:29;;;;;;;8.65;6.55;;;19.10;59.60;;;;;;20672021;28;20477;-57
2021/10/09 05:26:31;;;;;;;8.10;6.00;;;19.00;59.60;;;;;;20666844;28;20026;-57
2021/10/09 05:36:31;;;;;;;10.70;6.65;;;19.00;59.50;;;;;;20666477;28;20186;-55
2021/10/09 05:46:33;;;;;;;9.40;6.03;;;19.00;59.40;;;;;;20666288;28;20046;-54
2021/10/09 06:38:04;;;;;;;10.50;6.47;;;18.90;59.20;;;;;;20712839;28;20026;-54
2021/10/09 07:08:24;;;;;;;10.60;6.88;;;18.90;59.20;;;;;;20686119;28;20034;-55
2021/10/09 07:18:25;;;;;;;16.98;6.50;;;18.90;59.20;;;;;;20690691;28;20563;-57
2021/10/09 07:28:25;;;;;;;26.25;8.80;;;18.90;58.00;;;;;;20707287;28;20033;-57
2021/10/09 07:38:26;;;;;;;30.10;11.93;;;18.80;56.40;;;;;;20721805;28;20041;-53
2021/10/09 07:48:27;;;;;;;21.90;9.68;;;18.80;54.60;;;;;;20698138;28;20037;-56
2021/10/09 07:58:27;;;;;;;27.25;10.98;;;18.90;53.00;;;;;;20693779;28;20030;-55
2021/10/09 08:08:28;;;;;;;16.30;9.27;;;19.00;53.10;;;;;;20717800;28;20030;-56
2021/10/09 08:18:28;;;;;;;21.85;11.23;;;19.10;51.80;;;;;;20697840;28;20038;-51
2021/10/09 08:38:52;;;;;;;17.73;9.43;;;19.10;50.90;;;;;;20723455;28;20109;-54
2021/10/09 08:48:53;;;;;;;14.82;8.95;;;19.20;51.30;;;;;;20750799;28;20036;-54
2021/10/09 08:59:05;;;;;;;37.33;9.02;;;19.10;49.60;;;;;;20736464;28;20104;-54
2021/10/09 09:40:03;;;;;;;;;;;20.40;53.80;;;;;;20735635;28;20038;-56
2021/10/09 09:50:05;;;;;;;15.98;6.75;;;20.80;53.90;;;;;;20744968;28;19910;-52
2021/10/09 10:00:16;;;;;;;17.48;7.78;;;20.80;53.70;;;;;;20708237;28;20034;-53
2021/10/09 10:10:17;;;;;;;15.05;6.95;;;20.90;53.70;;;;;;20745393;28;20070;-53
2021/10/09 10:20:18;;;;;;;14.77;6.77;;;20.90;54.00;;;;;;20741490;28;20038;-56
2021/10/09 10:30:20;;;;;;;12.43;5.90;;;20.80;54.20;;;;;;20741753;28;20827;-50
2021/10/09 10:40:44;;;;;;;17.98;6.72;;;20.70;54.60;;;;;;20695837;28;20093;-54
2021/10/09 11:01:17;;;;;;;10.05;5.70;;;20.70;55.40;;;;;;20736491;28;20053;-54
2021/10/09 11:11:35;;;;;;;11.27;6.07;;;20.60;55.40;;;;;;20737879;28;20041;-54
2021/10/09 11:21:54;;;;;;;7.90;5.27;;;20.50;55.30;;;;;;20736276;28;20033;-55
2021/10/09 11:32:01;;;;;;;7.05;4.47;;;20.60;55.70;;;;;;20735513;28;20037;-54
2021/10/09 11:42:04;;;;;;;11.45;5.07;;;20.50;55.90;;;;;;20736259;28;20032;-55
2021/10/09 12:02:43;;;;;;;7.93;4.80;;;20.50;55.90;;;;;;20734485;28;20034;-57
2021/10/09 12:12:47;;;;;;;10.57;4.32;;;20.50;55.90;;;;;;20736357;28;20104;-56
2021/10/09 12:22:55;;;;;;;11.38;5.30;;;20.50;55.90;;;;;;20734402;28;20052;-59
2021/10/09 12:32:55;;;;;;;8.80;5.00;;;20.50;56.00;;;;;;20736661;28;20033;-58
2021/10/09 12:43:00;;;;;;;9.93;4.07;;;20.50;56.00;;;;;;20733882;28;20034;-57
2021/10/09 12:53:01;;;;;;;9.18;3.95;;;20.40;56.20;;;;;;20709461;28;20030;-58
2021/10/09 13:03:02;;;;;;;7.30;4.13;;;20.50;56.30;;;;;;20683114;28;20101;-57
2021/10/09 13:13:03;;;;;;;6.82;4.32;;;20.40;56.50;;;;;;20733223;28;20042;-56
2021/10/09 13:23:04;;;;;;;10.82;4.45;;;20.40;56.10;;;;;;20717882;28;20088;-54
2021/10/09 13:33:05;;;;;;;9.65;4.72;;;20.30;56.20;;;;;;20720064;28;20117;-57
2021/10/09 13:43:11;;;;;;;10.02;4.20;;;20.30;56.30;;;;;;20721637;28;20065;-53
2021/10/09 13:53:12;;;;;;;8.60;4.25;;;20.20;56.40;;;;;;20746529;28;20022;-58
2021/10/09 14:03:14;;;;;;;8.75;4.22;;;20.20;56.30;;;;;;20731300;28;20029;-53
2021/10/09 14:13:16;;;;;;;7.20;4.28;;;20.00;56.70;;;;;;20745081;28;20033;-53
2021/10/09 14:23:18;;;;;;;8.23;3.95;;;20.00;56.50;;;;;;20710688;28;20436;-49
2021/10/09 14:33:18;;;;;;;6.60;4.05;;;20.20;56.60;;;;;;20735602;28;20407;-55
2021/10/09 14:43:19;;;;;;;9.15;4.82;;;20.10;57.50;;;;;;20739056;28;20112;-56
2021/10/09 15:23:58;;;;;;;9.00;4.78;;;20.00;58.90;;;;;;20723052;28;20083;-57
2021/10/09 15:33:59;;;;;;;5.95;3.40;;;20.00;59.20;;;;;;20736892;28;20052;-54
2021/10/09 15:43:59;;;;;;;10.52;4.07;;;19.90;59.20;;;;;;20734508;28;20512;-53
2021/10/09 15:54:00;;;;;;;5.53;3.67;;;19.90;59.30;;;;;;20736551;28;20021;-57
2021/10/09 16:04:01;;;;;;;5.18;3.08;;;19.80;59.60;;;;;;20734233;28;20105;-54
2021/10/09 16:14:08;;;;;;;8.52;3.53;;;19.90;59.80;;;;;;20718188;28;20030;-55
2021/10/09 16:24:08;;;;;;;7.00;3.55;;;19.90;60.40;;;;;;20735297;28;20034;-57
2021/10/09 16:34:09;;;;;;;6.28;3.25;;;19.70;62.80;;;;;;20736754;28;20049;-55
2021/10/09 16:44:09;;;;;;;4.05;3.03;;;19.70;61.60;;;;;;20736356;28;20029;-53
2021/10/09 16:54:11;;;;;;;7.68;3.67;;;19.60;61.60;;;;;;20748086;28;20148;-50
2021/10/09 17:04:12;;;;;;;5.22;3.80;;;19.70;61.70;;;;;;20749910;28;20572;-56
2021/10/09 17:14:13;;;;;;;9.85;3.60;;;19.90;60.60;;;;;;20748495;28;20060;-57
2021/10/09 17:24:13;;;;;;;9.10;4.45;;;19.70;62.00;;;;;;20748113;28;20407;-55
2021/10/09 17:34:14;;;;;;;9.32;4.93;;;19.70;61.10;;;;;;20692635;28;20088;-59
2021/10/09 17:44:15;;;;;;;7.82;3.33;;;19.80;61.00;;;;;;20746697;28;20412;-59
2021/10/09 17:54:15;;;;;;;11.95;4.78;;;20.00;61.10;;;;;;20745787;28;20053;-58
2021/10/09 18:04:16;;;;;;;14.35;4.78;;;20.20;60.80;;;;;;20744672;28;20030;-56
2021/10/09 18:14:18;;;;;;;24.77;4.47;;;20.40;59.60;;;;;;20737127;28;20042;-55
2021/10/09 18:24:18;;;;;;;22.88;4.88;;;20.70;59.90;;;;;;20742570;28;20026;-52
2021/10/09 18:34:19;;;;;;;21.65;4.25;;;21.00;59.90;;;;;;20741874;28;20557;-52
2021/10/09 18:44:20;;;;;;;26.45;5.53;;;21.20;60.60;;;;;;20741332;28;20570;-57
2021/10/09 18:54:20;;;;;;;19.38;4.60;;;21.10;60.10;;;;;;20740348;28;20567;-55
2021/10/09 19:04:21;;;;;;;27.33;6.13;;;21.00;60.60;;;;;;21000775;23;20485;-61
2021/10/09 19:14:27;;;;;;;21.27;5.72;;;20.90;61.00;;;;;;20732198;28;20026;-61
2021/10/09 19:24:27;;;;;;;33.30;6.97;;;20.80;61.40;;;;;;20712228;28;20030;-63
2021/10/09 19:34:35;;;;;;;16.20;5.40;;;20.80;62.90;;;;;;20676711;28;20048;-61
2021/10/09 19:44:36;;;;;;;21.27;7.43;;;20.70;62.60;;;;;;20718782;28;20026;-63
2021/10/09 19:54:55;;;;;;;24.52;6.43;;;20.70;62.60;;;;;;20734262;28;20026;-62
2021/10/09 20:04:57;;;;;;;14.10;6.03;;;20.60;60.80;;;;;;20735633;28;20057;-63
2021/10/09 20:14:57;;;;;;;18.52;5.97;;;20.60;60.90;;;;;;20709615;28;20022;-62
2021/10/09 20:24:58;;;;;;;15.57;6.03;;;20.50;64.10;;;;;;20695315;28;20058;-62
2021/10/09 20:34:59;;;;;;;19.38;6.88;;;20.50;61.50;;;;;;20687014;28;20053;-62
2021/10/09 20:44:59;;;;;;;14.10;5.90;;;20.40;64.70;;;;;;20738000;28;20025;-61
2021/10/09 20:55:01;;;;;;;23.42;5.95;;;20.30;65.30;;;;;;20751903;28;20100;-61
2021/10/09 21:05:02;;;;;;;20.52;5.90;;;20.20;64.90;;;;;;20681367;28;20030;-60
2021/10/09 21:25:20;;;;;;;14.00;5.05;;;20.10;64.10;;;;;;20719323;28;20112;-62
2021/10/09 21:35:20;;;;;;;12.70;5.22;;;20.10;64.20;;;;;;20711268;28;20084;-61
2021/10/09 21:45:21;;;;;;;14.35;5.20;;;20.10;64.10;;;;;;20679598;28;20030;-61
2021/10/09 21:55:22;;;;;;;17.70;5.63;;;20.00;64.50;;;;;;20698987;28;20034;-62
2021/10/09 22:36:20;;;;;;;12.60;5.38;;;19.70;64.60;;;;;;20706197;28;20441;-62
2021/10/09 22:46:20;;;;;;;13.25;5.32;;;19.70;64.60;;;;;;20710492;28;20065;-61
2021/10/09 22:56:21;;;;;;;14.73;5.03;;;19.70;64.50;;;;;;20708165;28;20481;-62
2021/10/09 23:06:21;;;;;;;8.90;5.25;;;19.60;64.20;;;;;;20705764;28;20473;-62
2021/10/09 23:16:22;;;;;;;8.13;5.50;;;19.60;64.30;;;;;;20712185;28;20038;-62
2021/10/09 23:26:22;;;;;;;9.17;5.13;;;19.50;64.00;;;;;;20702001;28;20049;-62
2021/10/09 23:36:24;;;;;;;10.15;5.63;;;19.50;63.80;;;;;;20670944;28;20504;-63
2021/10/09 23:46:25;;;;;;;7.40;5.18;;;19.50;63.80;;;;;;20660282;28;20041;-62
2021/10/09 23:56:25;;;;;;;7.10;4.80;;;19.50;63.60;;;;;;20659003;28;20022;-62
